sensor_id;sensor_type;location;lat;lon;timestamp;P1;P2;P0
73973;PMS5003;62336;-26.094;27.994;2023-02-28T00:00:40;6;6;
73973;PMS5003;62336;-26.094;27.994;2023-02-28T00:03:05;10;9;
73973;PMS5003;62336;-26.094;27.994;2023-02-28T00:05:31;9;8;
73973;PMS5003;62336;-26.094;27.994;2023-02-28T00:07:55;8;7;
73973;PMS5003;62336;-26.094;27.994;2023-02-28T00:10:21;7;7;
73973;PMS5003;62336;-26.094;27.994;2023-02-28T00:12:45;8;8;
73973;PMS5003;62336;-26.094;27.994;2023-02-28T00:15:10;9;9;
73973;PMS5003;62336;-26.094;27.994;2023-02-28T00:17:35;8;8;
73973;PMS5003;62336;-26.094;27.994;2023-02-28T00:20:00;10;10;
73973;PMS5003;62336;-26.094;27.994;2023-02-28T00:22:25;9;8;
73973;PMS5003;62336;-26.094;27.994;2023-02-28T00:24:51;7;7;
73973;PMS5003;62336;-26.094;27.994;2023-02-28T00:27:17;8;8;
73973;PMS5003;62336;-26.094;27.994;2023-02-28T00:29:41;8;8;
73973;PMS5003;62336;-26.094;27.994;2023-02-28T00:32:06;11;10;
73973;PMS5003;62336;-26.094;27.994;2023-02-28T00:34:32;11;10;
73973;PMS5003;62336;-26.094;27.994;2023-02-28T00:36:57;8;8;
73973;PMS5003;62336;-26.094;27.994;2023-02-28T00:39:23;11;11;
73973;PMS5003;62336;-26.094;27.994;2023-02-28T00:41:48;8;8;
73973;PMS5003;62336;-26.094;27.994;2023-02-28T00:44:14;11;10;
73973;PMS5003;62336;-26.094;27.994;2023-02-28T00:46:39;8;8;
73973;PMS5003;62336;-26.094;27.994;2023-02-28T00:49:04;10;10;
73973;PMS5003;62336;-26.094;27.994;2023-02-28T00:51:29;13;11;
73973;PMS5003;62336;-26.094;27.994;2023-02-28T00:53:54;10;10;
73973;PMS5003;62336;-26.094;27.994;2023-02-28T00:56:19;11;11;
73973;PMS5003;62336;-26.094;27.994;2023-02-28T00:58:45;10;10;
73973;PMS5003;62336;-26.094;27.994;2023-02-28T01:01:11;14;13;
73973;PMS5003;62336;-26.094;27.994;2023-02-28T01:03:37;14;14;
73973;PMS5003;62336;-26.094;27.994;2023-02-28T01:06:02;11;11;
73973;PMS5003;62336;-26.094;27.994;2023-02-28T01:08:28;12;12;
73973;PMS5003;62336;-26.094;27.994;2023-02-28T01:10:53;14;12;
73973;PMS5003;62336;-26.094;27.994;2023-02-28T01:13:18;13;13;
73973;PMS5003;62336;-26.094;27.994;2023-02-28T01:15:45;13;12;
73973;PMS5003;62336;-26.094;27.994;2023-02-28T01:18:09;15;15;
73973;PMS5003;62336;-26.094;27.994;2023-02-28T01:20:36;15;15;
73973;PMS5003;62336;-26.094;27.994;2023-02-28T01:23:00;16;15;
73973;PMS5003;62336;-26.094;27.994;2023-02-28T01:25:25;16;16;
73973;PMS5003;62336;-26.094;27.994;2023-02-28T01:27:51;19;18;
73973;PMS5003;62336;-26.094;27.994;2023-02-28T01:30:16;17;17;
73973;PMS5003;62336;-26.094;27.994;2023-02-28T01:32:42;17;15;
73973;PMS5003;62336;-26.094;27.994;2023-02-28T01:35:08;16;16;
73973;PMS5003;62336;-26.094;27.994;2023-02-28T01:37:32;17;16;
73973;PMS5003;62336;-26.094;27.994;2023-02-28T01:39:58;16;14;
73973;PMS5003;62336;-26.094;27.994;2023-02-28T01:42:24;17;17;
73973;PMS5003;62336;-26.094;27.994;2023-02-28T01:44:58;16;15;
73973;PMS5003;62336;-26.094;27.994;2023-02-28T01:47:14;19;19;
73973;PMS5003;62336;-26.094;27.994;2023-02-28T01:49:39;19;18;
73973;PMS5003;62336;-26.094;27.994;2023-02-28T01:52:05;21;20;
73973;PMS5003;62336;-26.094;27.994;2023-02-28T01:54:31;19;16;
73973;PMS5003;62336;-26.094;27.994;2023-02-28T01:56:56;19;18;
73973;PMS5003;62336;-26.094;27.994;2023-02-28T01:59:22;20;20;
73973;PMS5003;62336;-26.094;27.994;2023-02-28T02:01:47;18;17;
73973;PMS5003;62336;-26.094;27.994;2023-02-28T02:04:12;20;20;
73973;PMS5003;62336;-26.094;27.994;2023-02-28T02:06:38;17;17;
73973;PMS5003;62336;-26.094;27.994;2023-02-28T02:09:03;17;17;
73973;PMS5003;62336;-26.094;27.994;2023-02-28T02:11:28;17;17;
73973;PMS5003;62336;-26.094;27.994;2023-02-28T02:13:58;19;17;
73973;PMS5003;62336;-26.094;27.994;2023-02-28T02:16:23;19;18;
73973;PMS5003;62336;-26.094;27.994;2023-02-28T02:18:44;20;18;
73973;PMS5003;62336;-26.094;27.994;2023-02-28T02:21:15;21;18;
73973;PMS5003;62336;-26.094;27.994;2023-02-28T02:26:02;15;15;
73973;PMS5003;62336;-26.094;27.994;2023-02-28T02:30:59;16;15;
73973;PMS5003;62336;-26.094;27.994;2023-02-28T02:35:41;18;17;
73973;PMS5003;62336;-26.094;27.994;2023-02-28T02:38:07;16;16;
73973;PMS5003;62336;-26.094;27.994;2023-02-28T02:40:33;16;16;
73973;PMS5003;62336;-26.094;27.994;2023-02-28T02:42:58;19;19;
73973;PMS5003;62336;-26.094;27.994;2023-02-28T02:45:23;18;17;
73973;PMS5003;62336;-26.094;27.994;2023-02-28T02:47:48;20;18;
73973;PMS5003;62336;-26.094;27.994;2023-02-28T02:50:13;16;16;
73973;PMS5003;62336;-26.094;27.994;2023-02-28T02:52:39;17;15;
73973;PMS5003;62336;-26.094;27.994;2023-02-28T02:55:04;15;14;
73973;PMS5003;62336;-26.094;27.994;2023-02-28T02:57:30;16;14;
73973;PMS5003;62336;-26.094;27.994;2023-02-28T02:59:54;9;9;
73973;PMS5003;62336;-26.094;27.994;2023-02-28T03:02:19;14;12;
73973;PMS5003;62336;-26.094;27.994;2023-02-28T03:04:46;13;13;
73973;PMS5003;62336;-26.094;27.994;2023-02-28T03:07:10;15;14;
73973;PMS5003;62336;-26.094;27.994;2023-02-28T03:09:35;12;11;
73973;PMS5003;62336;-26.094;27.994;2023-02-28T03:12:00;11;11;
73973;PMS5003;62336;-26.094;27.994;2023-02-28T03:14:28;11;11;
73973;PMS5003;62336;-26.094;27.994;2023-02-28T03:16:56;10;10;
73973;PMS5003;62336;-26.094;27.994;2023-02-28T03:19:22;12;10;
73973;PMS5003;62336;-26.094;27.994;2023-02-28T03:21:43;11;11;
73973;PMS5003;62336;-26.094;27.994;2023-02-28T03:24:07;15;14;
73973;PMS5003;62336;-26.094;27.994;2023-02-28T03:26:32;12;11;
73973;PMS5003;62336;-26.094;27.994;2023-02-28T03:29:00;14;13;
73973;PMS5003;62336;-26.094;27.994;2023-02-28T03:31:25;13;12;
73973;PMS5003;62336;-26.094;27.994;2023-02-28T03:33:50;10;10;
73973;PMS5003;62336;-26.094;27.994;2023-02-28T03:36:16;15;15;
73973;PMS5003;62336;-26.094;27.994;2023-02-28T03:38:40;12;11;
73973;PMS5003;62336;-26.094;27.994;2023-02-28T03:41:05;11;11;
73973;PMS5003;62336;-26.094;27.994;2023-02-28T03:43:30;14;12;
73973;PMS5003;62336;-26.094;27.994;2023-02-28T03:45:54;14;14;
73973;PMS5003;62336;-26.094;27.994;2023-02-28T03:48:19;13;13;
73973;PMS5003;62336;-26.094;27.994;2023-02-28T03:50:45;13;13;
73973;PMS5003;62336;-26.094;27.994;2023-02-28T03:53:15;12;12;
73973;PMS5003;62336;-26.094;27.994;2023-02-28T04:02:54;13;12;
73973;PMS5003;62336;-26.094;27.994;2023-02-28T06:38:49;6;6;
73973;PMS5003;62336;-26.094;27.994;2023-02-28T06:43:50;14;12;
73973;PMS5003;62336;-26.094;27.994;2023-02-28T06:48:30;15;14;
73973;PMS5003;62336;-26.094;27.994;2023-02-28T06:53:20;12;11;
73973;PMS5003;62336;-26.094;27.994;2023-02-28T06:55:50;12;12;
73973;PMS5003;62336;-26.094;27.994;2023-02-28T06:58:10;10;9;
73973;PMS5003;62336;-26.094;27.994;2023-02-28T07:00:36;12;10;
73973;PMS5003;62336;-26.094;27.994;2023-02-28T07:03:01;9;8;
73973;PMS5003;62336;-26.094;27.994;2023-02-28T07:05:26;10;10;
73973;PMS5003;62336;-26.094;27.994;2023-02-28T07:07:51;12;12;
73973;PMS5003;62336;-26.094;27.994;2023-02-28T07:10:17;12;9;
73973;PMS5003;62336;-26.094;27.994;2023-02-28T07:12:43;13;13;
73973;PMS5003;62336;-26.094;27.994;2023-02-28T07:15:08;12;11;
73973;PMS5003;62336;-26.094;27.994;2023-02-28T07:17:33;10;9;
73973;PMS5003;62336;-26.094;27.994;2023-02-28T07:19:58;11;10;
73973;PMS5003;62336;-26.094;27.994;2023-02-28T07:22:22;8;8;
73973;PMS5003;62336;-26.094;27.994;2023-02-28T07:24:48;11;10;
73973;PMS5003;62336;-26.094;27.994;2023-02-28T07:27:14;10;9;
73973;PMS5003;62336;-26.094;27.994;2023-02-28T07:29:38;9;9;
73973;PMS5003;62336;-26.094;27.994;2023-02-28T07:32:03;9;9;
73973;PMS5003;62336;-26.094;27.994;2023-02-28T07:34:29;11;10;
73973;PMS5003;62336;-26.094;27.994;2023-02-28T07:36:54;8;8;
73973;PMS5003;62336;-26.094;27.994;2023-02-28T07:39:19;10;10;
73973;PMS5003;62336;-26.094;27.994;2023-02-28T07:41:44;8;7;
73973;PMS5003;62336;-26.094;27.994;2023-02-28T07:44:09;10;9;
73973;PMS5003;62336;-26.094;27.994;2023-02-28T07:46:35;8;7;
73973;PMS5003;62336;-26.094;27.994;2023-02-28T07:49:00;9;9;
73973;PMS5003;62336;-26.094;27.994;2023-02-28T07:51:25;8;8;
73973;PMS5003;62336;-26.094;27.994;2023-02-28T07:53:50;9;8;
73973;PMS5003;62336;-26.094;27.994;2023-02-28T07:56:15;8;8;
73973;PMS5003;62336;-26.094;27.994;2023-02-28T07:58:41;7;7;
73973;PMS5003;62336;-26.094;27.994;2023-02-28T08:01:07;11;10;
73973;PMS5003;62336;-26.094;27.994;2023-02-28T08:03:33;9;7;
73973;PMS5003;62336;-26.094;27.994;2023-02-28T08:05:58;7;7;
73973;PMS5003;62336;-26.094;27.994;2023-02-28T08:08:23;8;8;
73973;PMS5003;62336;-26.094;27.994;2023-02-28T08:10:48;9;9;
73973;PMS5003;62336;-26.094;27.994;2023-02-28T08:13:13;8;7;
73973;PMS5003;62336;-26.094;27.994;2023-02-28T08:15:39;8;7;
73973;PMS5003;62336;-26.094;27.994;2023-02-28T08:18:03;5;5;
73973;PMS5003;62336;-26.094;27.994;2023-02-28T08:20:28;13;12;
73973;PMS5003;62336;-26.094;27.994;2023-02-28T08:22:53;7;6;
73973;PMS5003;62336;-26.094;27.994;2023-02-28T08:25:19;3;3;
73973;PMS5003;62336;-26.094;27.994;2023-02-28T08:27:44;5;5;
73973;PMS5003;62336;-26.094;27.994;2023-02-28T08:30:10;5;5;
73973;PMS5003;62336;-26.094;27.994;2023-02-28T08:32:34;6;5;
73973;PMS5003;62336;-26.094;27.994;2023-02-28T08:34:59;5;5;
73973;PMS5003;62336;-26.094;27.994;2023-02-28T08:37:24;4;4;
73973;PMS5003;62336;-26.094;27.994;2023-02-28T08:39:49;4;4;
73973;PMS5003;62336;-26.094;27.994;2023-02-28T08:42:13;5;4;
73973;PMS5003;62336;-26.094;27.994;2023-02-28T08:44:40;5;4;
73973;PMS5003;62336;-26.094;27.994;2023-02-28T08:47:05;3;3;
73973;PMS5003;62336;-26.094;27.994;2023-02-28T08:49:30;5;5;
73973;PMS5003;62336;-26.094;27.994;2023-02-28T08:51:55;5;4;
73973;PMS5003;62336;-26.094;27.994;2023-02-28T08:54:21;5;5;
73973;PMS5003;62336;-26.094;27.994;2023-02-28T08:56:47;3;3;
73973;PMS5003;62336;-26.094;27.994;2023-02-28T08:59:13;4;2;
73973;PMS5003;62336;-26.094;27.994;2023-02-28T09:01:38;4;4;
73973;PMS5003;62336;-26.094;27.994;2023-02-28T09:04:03;5;5;
73973;PMS5003;62336;-26.094;27.994;2023-02-28T09:06:28;4;4;
73973;PMS5003;62336;-26.094;27.994;2023-02-28T09:08:56;4;4;
73973;PMS5003;62336;-26.094;27.994;2023-02-28T09:11:19;8;8;
73973;PMS5003;62336;-26.094;27.994;2023-02-28T09:13:45;4;4;
73973;PMS5003;62336;-26.094;27.994;2023-02-28T09:16:10;5;5;
73973;PMS5003;62336;-26.094;27.994;2023-02-28T09:18:35;5;4;
73973;PMS5003;62336;-26.094;27.994;2023-02-28T09:20:59;5;4;
73973;PMS5003;62336;-26.094;27.994;2023-02-28T09:23:25;4;4;
73973;PMS5003;62336;-26.094;27.994;2023-02-28T09:25:52;5;5;
73973;PMS5003;62336;-26.094;27.994;2023-02-28T09:28:17;6;6;
73973;PMS5003;62336;-26.094;27.994;2023-02-28T09:30:40;6;5;
73973;PMS5003;62336;-26.094;27.994;2023-02-28T09:33:05;6;6;
73973;PMS5003;62336;-26.094;27.994;2023-02-28T09:35:30;6;6;
73973;PMS5003;62336;-26.094;27.994;2023-02-28T09:37:55;6;6;
73973;PMS5003;62336;-26.094;27.994;2023-02-28T09:40:22;11;11;
73973;PMS5003;62336;-26.094;27.994;2023-02-28T09:42:46;8;8;
73973;PMS5003;62336;-26.094;27.994;2023-02-28T09:45:13;6;6;
73973;PMS5003;62336;-26.094;27.994;2023-02-28T09:47:36;5;5;
73973;PMS5003;62336;-26.094;27.994;2023-02-28T09:50:03;6;6;
73973;PMS5003;62336;-26.094;27.994;2023-02-28T09:52:28;7;6;
73973;PMS5003;62336;-26.094;27.994;2023-02-28T09:54:53;7;7;
73973;PMS5003;62336;-26.094;27.994;2023-02-28T09:57:19;4;4;
73973;PMS5003;62336;-26.094;27.994;2023-02-28T09:59:47;7;7;
73973;PMS5003;62336;-26.094;27.994;2023-02-28T10:02:13;7;7;
73973;PMS5003;62336;-26.094;27.994;2023-02-28T10:04:38;6;6;
73973;PMS5003;62336;-26.094;27.994;2023-02-28T10:06:59;8;7;
73973;PMS5003;62336;-26.094;27.994;2023-02-28T10:09:24;8;8;
73973;PMS5003;62336;-26.094;27.994;2023-02-28T10:11:50;5;5;
73973;PMS5003;62336;-26.094;27.994;2023-02-28T10:14:15;6;6;
73973;PMS5003;62336;-26.094;27.994;2023-02-28T10:16:40;9;9;
73973;PMS5003;62336;-26.094;27.994;2023-02-28T10:19:06;6;6;
73973;PMS5003;62336;-26.094;27.994;2023-02-28T10:21:34;4;4;
73973;PMS5003;62336;-26.094;27.994;2023-02-28T10:23:59;5;5;
73973;PMS5003;62336;-26.094;27.994;2023-02-28T10:26:21;11;10;
73973;PMS5003;62336;-26.094;27.994;2023-02-28T10:28:47;6;5;
73973;PMS5003;62336;-26.094;27.994;2023-02-28T10:31:14;7;6;
73973;PMS5003;62336;-26.094;27.994;2023-02-28T10:33:39;6;6;
73973;PMS5003;62336;-26.094;27.994;2023-02-28T10:36:05;7;7;
73973;PMS5003;62336;-26.094;27.994;2023-02-28T10:38:32;6;6;
73973;PMS5003;62336;-26.094;27.994;2023-02-28T10:43:20;9;7;
73973;PMS5003;62336;-26.094;27.994;2023-02-28T10:50:41;8;8;
73973;PMS5003;62336;-26.094;27.994;2023-02-28T10:53:07;8;8;
73973;PMS5003;62336;-26.094;27.994;2023-02-28T10:55:25;10;10;
73973;PMS5003;62336;-26.094;27.994;2023-02-28T10:57:52;10;10;
73973;PMS5003;62336;-26.094;27.994;2023-02-28T11:00:18;11;10;
73973;PMS5003;62336;-26.094;27.994;2023-02-28T11:02:43;9;8;
73973;PMS5003;62336;-26.094;27.994;2023-02-28T11:07:33;9;8;
73973;PMS5003;62336;-26.094;27.994;2023-02-28T11:09:58;8;8;
73973;PMS5003;62336;-26.094;27.994;2023-02-28T11:12:24;10;10;
73973;PMS5003;62336;-26.094;27.994;2023-02-28T11:14:49;10;10;
73973;PMS5003;62336;-26.094;27.994;2023-02-28T11:17:15;10;9;
73973;PMS5003;62336;-26.094;27.994;2023-02-28T11:19:40;9;9;
73973;PMS5003;62336;-26.094;27.994;2023-02-28T11:22:05;10;10;
73973;PMS5003;62336;-26.094;27.994;2023-02-28T11:24:30;10;10;
73973;PMS5003;62336;-26.094;27.994;2023-02-28T11:26:55;12;12;
73973;PMS5003;62336;-26.094;27.994;2023-02-28T11:29:20;10;10;
73973;PMS5003;62336;-26.094;27.994;2023-02-28T11:31:47;11;10;
73973;PMS5003;62336;-26.094;27.994;2023-02-28T11:36:35;11;11;
73973;PMS5003;62336;-26.094;27.994;2023-02-28T11:39:03;12;11;
73973;PMS5003;62336;-26.094;27.994;2023-02-28T11:41:30;13;13;
73973;PMS5003;62336;-26.094;27.994;2023-02-28T11:43:57;15;15;
73973;PMS5003;62336;-26.094;27.994;2023-02-28T11:46:20;12;12;
73973;PMS5003;62336;-26.094;27.994;2023-02-28T11:48:45;13;12;
73973;PMS5003;62336;-26.094;27.994;2023-02-28T11:51:10;12;12;
73973;PMS5003;62336;-26.094;27.994;2023-02-28T11:53:42;13;12;
73973;PMS5003;62336;-26.094;27.994;2023-02-28T11:55:59;16;15;
73973;PMS5003;62336;-26.094;27.994;2023-02-28T11:58:27;13;13;
73973;PMS5003;62336;-26.094;27.994;2023-02-28T12:00:54;13;13;
73973;PMS5003;62336;-26.094;27.994;2023-02-28T12:03:16;13;12;
73973;PMS5003;62336;-26.094;27.994;2023-02-28T12:05:41;13;11;
73973;PMS5003;62336;-26.094;27.994;2023-02-28T12:08:07;14;13;
73973;PMS5003;62336;-26.094;27.994;2023-02-28T12:10:30;11;11;
73973;PMS5003;62336;-26.094;27.994;2023-02-28T12:13:00;12;12;
73973;PMS5003;62336;-26.094;27.994;2023-02-28T12:15:24;13;13;
73973;PMS5003;62336;-26.094;27.994;2023-02-28T12:17:48;11;10;
73973;PMS5003;62336;-26.094;27.994;2023-02-28T12:20:13;12;12;
73973;PMS5003;62336;-26.094;27.994;2023-02-28T12:22:36;11;11;
73973;PMS5003;62336;-26.094;27.994;2023-02-28T12:25:04;10;10;
73973;PMS5003;62336;-26.094;27.994;2023-02-28T12:27:26;14;12;
73973;PMS5003;62336;-26.094;27.994;2023-02-28T12:29:52;10;9;
73973;PMS5003;62336;-26.094;27.994;2023-02-28T12:32:18;12;11;
73973;PMS5003;62336;-26.094;27.994;2023-02-28T12:34:42;12;12;
73973;PMS5003;62336;-26.094;27.994;2023-02-28T12:37:09;13;12;
73973;PMS5003;62336;-26.094;27.994;2023-02-28T12:39:34;12;11;
73973;PMS5003;62336;-26.094;27.994;2023-02-28T12:41:59;10;10;
73973;PMS5003;62336;-26.094;27.994;2023-02-28T12:44:26;9;9;
73973;PMS5003;62336;-26.094;27.994;2023-02-28T12:46:48;12;11;
73973;PMS5003;62336;-26.094;27.994;2023-02-28T12:49:14;10;9;
73973;PMS5003;62336;-26.094;27.994;2023-02-28T12:51:39;11;10;
73973;PMS5003;62336;-26.094;27.994;2023-02-28T12:54:07;13;12;
73973;PMS5003;62336;-26.094;27.994;2023-02-28T12:56:32;11;10;
73973;PMS5003;62336;-26.094;27.994;2023-02-28T12:58:55;12;11;
73973;PMS5003;62336;-26.094;27.994;2023-02-28T13:01:29;11;11;
73973;PMS5003;62336;-26.094;27.994;2023-02-28T13:03:49;12;11;
73973;PMS5003;62336;-26.094;27.994;2023-02-28T13:06:11;13;13;
73973;PMS5003;62336;-26.094;27.994;2023-02-28T13:10:59;11;11;
73973;PMS5003;62336;-26.094;27.994;2023-02-28T13:13:25;11;11;
73973;PMS5003;62336;-26.094;27.994;2023-02-28T13:15:59;14;13;
73973;PMS5003;62336;-26.094;27.994;2023-02-28T13:20:48;14;13;
73973;PMS5003;62336;-26.094;27.994;2023-02-28T13:23:05;11;10;
73973;PMS5003;62336;-26.094;27.994;2023-02-28T13:27:56;17;14;
73973;PMS5003;62336;-26.094;27.994;2023-02-28T13:32:45;13;12;
73973;PMS5003;62336;-26.094;27.994;2023-02-28T13:37:37;13;13;
73973;PMS5003;62336;-26.094;27.994;2023-02-28T13:42:34;11;11;
73973;PMS5003;62336;-26.094;27.994;2023-02-28T13:49:41;13;12;
73973;PMS5003;62336;-26.094;27.994;2023-02-28T13:52:09;14;14;
73973;PMS5003;62336;-26.094;27.994;2023-02-28T13:54:34;16;16;
73973;PMS5003;62336;-26.094;27.994;2023-02-28T13:57:01;12;12;
73973;PMS5003;62336;-26.094;27.994;2023-02-28T13:59:23;12;12;
73973;PMS5003;62336;-26.094;27.994;2023-02-28T14:01:50;12;12;
73973;PMS5003;62336;-26.094;27.994;2023-02-28T14:06:37;15;13;
73973;PMS5003;62336;-26.094;27.994;2023-02-28T14:09:03;10;9;
73973;PMS5003;62336;-26.094;27.994;2023-02-28T14:11:31;14;14;
73973;PMS5003;62336;-26.094;27.994;2023-02-28T14:13:53;12;12;
73973;PMS5003;62336;-26.094;27.994;2023-02-28T14:16:20;14;13;
73973;PMS5003;62336;-26.094;27.994;2023-02-28T14:18:47;15;12;
73973;PMS5003;62336;-26.094;27.994;2023-02-28T14:21:11;9;9;
73973;PMS5003;62336;-26.094;27.994;2023-02-28T14:26:01;12;12;
73973;PMS5003;62336;-26.094;27.994;2023-02-28T14:28:26;10;10;
73973;PMS5003;62336;-26.094;27.994;2023-02-28T14:30:56;11;11;
73973;PMS5003;62336;-26.094;27.994;2023-02-28T14:33:18;11;11;
73973;PMS5003;62336;-26.094;27.994;2023-02-28T14:35:45;12;11;
73973;PMS5003;62336;-26.094;27.994;2023-02-28T14:38:07;9;9;
73973;PMS5003;62336;-26.094;27.994;2023-02-28T14:40:32;12;12;
73973;PMS5003;62336;-26.094;27.994;2023-02-28T14:42:56;16;16;
73973;PMS5003;62336;-26.094;27.994;2023-02-28T14:45:21;16;15;
73973;PMS5003;62336;-26.094;27.994;2023-02-28T14:47:46;15;15;
73973;PMS5003;62336;-26.094;27.994;2023-02-28T14:52:37;15;15;
73973;PMS5003;62336;-26.094;27.994;2023-02-28T14:55:03;15;14;
73973;PMS5003;62336;-26.094;27.994;2023-02-28T14:57:28;13;13;
73973;PMS5003;62336;-26.094;27.994;2023-02-28T14:59:58;15;14;
73973;PMS5003;62336;-26.094;27.994;2023-02-28T15:02:19;15;15;
73973;PMS5003;62336;-26.094;27.994;2023-02-28T15:04:44;15;15;
73973;PMS5003;62336;-26.094;27.994;2023-02-28T15:07:08;21;17;
73973;PMS5003;62336;-26.094;27.994;2023-02-28T15:09:33;15;14;
73973;PMS5003;62336;-26.094;27.994;2023-02-28T15:11:59;19;17;
73973;PMS5003;62336;-26.094;27.994;2023-02-28T15:14:25;17;16;
73973;PMS5003;62336;-26.094;27.994;2023-02-28T15:16:51;14;12;
73973;PMS5003;62336;-26.094;27.994;2023-02-28T15:19:16;19;18;
73973;PMS5003;62336;-26.094;27.994;2023-02-28T15:21:41;21;19;
73973;PMS5003;62336;-26.094;27.994;2023-02-28T15:24:06;17;17;
73973;PMS5003;62336;-26.094;27.994;2023-02-28T15:26:31;17;17;
73973;PMS5003;62336;-26.094;27.994;2023-02-28T15:28:58;22;21;
73973;PMS5003;62336;-26.094;27.994;2023-02-28T15:31:23;20;19;
73973;PMS5003;62336;-26.094;27.994;2023-02-28T15:33:52;22;20;
73973;PMS5003;62336;-26.094;27.994;2023-02-28T15:36:14;22;21;
73973;PMS5003;62336;-26.094;27.994;2023-02-28T15:38:38;23;23;
73973;PMS5003;62336;-26.094;27.994;2023-02-28T15:41:04;21;19;
73973;PMS5003;62336;-26.094;27.994;2023-02-28T15:43:30;16;15;
73973;PMS5003;62336;-26.094;27.994;2023-02-28T15:45:56;19;19;
73973;PMS5003;62336;-26.094;27.994;2023-02-28T15:48:20;20;20;
73973;PMS5003;62336;-26.094;27.994;2023-02-28T15:50:46;16;16;
73973;PMS5003;62336;-26.094;27.994;2023-02-28T15:53:12;15;15;
73973;PMS5003;62336;-26.094;27.994;2023-02-28T15:55:35;16;15;
73973;PMS5003;62336;-26.094;27.994;2023-02-28T15:58:01;17;16;
73973;PMS5003;62336;-26.094;27.994;2023-02-28T16:00:30;17;16;
73973;PMS5003;62336;-26.094;27.994;2023-02-28T16:02:51;15;15;
73973;PMS5003;62336;-26.094;27.994;2023-02-28T16:05:19;16;16;
73973;PMS5003;62336;-26.094;27.994;2023-02-28T16:07:42;17;15;
73973;PMS5003;62336;-26.094;27.994;2023-02-28T16:10:08;20;18;
73973;PMS5003;62336;-26.094;27.994;2023-02-28T16:12:33;18;17;
73973;PMS5003;62336;-26.094;27.994;2023-02-28T16:14:58;16;16;
73973;PMS5003;62336;-26.094;27.994;2023-02-28T16:17:24;19;17;
73973;PMS5003;62336;-26.094;27.994;2023-02-28T16:19:49;21;20;
73973;PMS5003;62336;-26.094;27.994;2023-02-28T16:22:14;20;19;
73973;PMS5003;62336;-26.094;27.994;2023-02-28T16:24:39;20;20;
73973;PMS5003;62336;-26.094;27.994;2023-02-28T16:27:05;19;19;
73973;PMS5003;62336;-26.094;27.994;2023-02-28T16:29:30;16;15;
73973;PMS5003;62336;-26.094;27.994;2023-02-28T16:31:56;18;17;
73973;PMS5003;62336;-26.094;27.994;2023-02-28T16:34:21;19;19;
73973;PMS5003;62336;-26.094;27.994;2023-02-28T16:36:46;20;19;
73973;PMS5003;62336;-26.094;27.994;2023-02-28T16:39:11;24;21;
73973;PMS5003;62336;-26.094;27.994;2023-02-28T16:41:37;20;19;
73973;PMS5003;62336;-26.094;27.994;2023-02-28T16:44:02;16;16;
73973;PMS5003;62336;-26.094;27.994;2023-02-28T16:46:29;18;17;
73973;PMS5003;62336;-26.094;27.994;2023-02-28T16:48:53;17;17;
73973;PMS5003;62336;-26.094;27.994;2023-02-28T16:51:19;19;19;
73973;PMS5003;62336;-26.094;27.994;2023-02-28T16:53:44;21;20;
73973;PMS5003;62336;-26.094;27.994;2023-02-28T16:56:13;22;22;
73973;PMS5003;62336;-26.094;27.994;2023-02-28T16:58:36;20;20;
73973;PMS5003;62336;-26.094;27.994;2023-02-28T17:01:01;25;24;
73973;PMS5003;62336;-26.094;27.994;2023-02-28T17:03:26;19;19;
73973;PMS5003;62336;-26.094;27.994;2023-02-28T17:05:51;24;21;
73973;PMS5003;62336;-26.094;27.994;2023-02-28T17:08:17;23;20;
73973;PMS5003;62336;-26.094;27.994;2023-02-28T17:10:43;22;21;
73973;PMS5003;62336;-26.094;27.994;2023-02-28T17:13:08;20;20;
73973;PMS5003;62336;-26.094;27.994;2023-02-28T17:15:33;22;21;
73973;PMS5003;62336;-26.094;27.994;2023-02-28T17:17:59;21;21;
73973;PMS5003;62336;-26.094;27.994;2023-02-28T17:20:24;31;26;
73973;PMS5003;62336;-26.094;27.994;2023-02-28T17:22:50;29;28;
73973;PMS5003;62336;-26.094;27.994;2023-02-28T17:25:15;26;24;
73973;PMS5003;62336;-26.094;27.994;2023-02-28T17:27:40;28;26;
73973;PMS5003;62336;-26.094;27.994;2023-02-28T17:30:10;24;23;
73973;PMS5003;62336;-26.094;27.994;2023-02-28T17:32:32;25;24;
73973;PMS5003;62336;-26.094;27.994;2023-02-28T17:34:57;24;23;
73973;PMS5003;62336;-26.094;27.994;2023-02-28T17:37:22;24;23;
73973;PMS5003;62336;-26.094;27.994;2023-02-28T17:39:47;25;25;
73973;PMS5003;62336;-26.094;27.994;2023-02-28T17:42:12;21;21;
73973;PMS5003;62336;-26.094;27.994;2023-02-28T17:44:43;23;23;
73973;PMS5003;62336;-26.094;27.994;2023-02-28T17:47:04;17;16;
73973;PMS5003;62336;-26.094;27.994;2023-02-28T17:49:28;23;20;
73973;PMS5003;62336;-26.094;27.994;2023-02-28T17:51:53;19;18;
73973;PMS5003;62336;-26.094;27.994;2023-02-28T17:54:19;20;20;
73973;PMS5003;62336;-26.094;27.994;2023-02-28T17:56:44;22;19;
73973;PMS5003;62336;-26.094;27.994;2023-02-28T17:59:09;25;23;
73973;PMS5003;62336;-26.094;27.994;2023-02-28T18:01:38;24;23;
73973;PMS5003;62336;-26.094;27.994;2023-02-28T18:04:00;32;31;
73973;PMS5003;62336;-26.094;27.994;2023-02-28T18:06:26;32;30;
73973;PMS5003;62336;-26.094;27.994;2023-02-28T18:08:50;41;39;
73973;PMS5003;62336;-26.094;27.994;2023-02-28T18:11:17;35;35;
73973;PMS5003;62336;-26.094;27.994;2023-02-28T18:13:42;30;28;
73973;PMS5003;62336;-26.094;27.994;2023-02-28T18:16:08;27;25;
73973;PMS5003;62336;-26.094;27.994;2023-02-28T18:18:32;26;26;
73973;PMS5003;62336;-26.094;27.994;2023-02-28T18:20:57;26;24;
73973;PMS5003;62336;-26.094;27.994;2023-02-28T18:23:23;25;22;
73973;PMS5003;62336;-26.094;27.994;2023-02-28T18:25:48;18;18;
73973;PMS5003;62336;-26.094;27.994;2023-02-28T18:28:14;23;22;
73973;PMS5003;62336;-26.094;27.994;2023-02-28T18:30:40;22;18;
73973;PMS5003;62336;-26.094;27.994;2023-02-28T18:33:05;20;18;
73973;PMS5003;62336;-26.094;27.994;2023-02-28T18:35:30;14;14;
73973;PMS5003;62336;-26.094;27.994;2023-02-28T18:37:55;17;15;
73973;PMS5003;62336;-26.094;27.994;2023-02-28T18:40:20;17;17;
73973;PMS5003;62336;-26.094;27.994;2023-02-28T18:42:46;15;13;
73973;PMS5003;62336;-26.094;27.994;2023-02-28T18:45:11;13;13;
73973;PMS5003;62336;-26.094;27.994;2023-02-28T18:47:36;9;9;
73973;PMS5003;62336;-26.094;27.994;2023-02-28T18:50:01;10;10;
73973;PMS5003;62336;-26.094;27.994;2023-02-28T18:52:27;8;7;
73973;PMS5003;62336;-26.094;27.994;2023-02-28T18:54:51;10;10;
73973;PMS5003;62336;-26.094;27.994;2023-02-28T18:57:16;14;12;
73973;PMS5003;62336;-26.094;27.994;2023-02-28T18:59:41;10;7;
73973;PMS5003;62336;-26.094;27.994;2023-02-28T19:02:07;9;8;
73973;PMS5003;62336;-26.094;27.994;2023-02-28T19:04:31;9;8;
73973;PMS5003;62336;-26.094;27.994;2023-02-28T19:06:56;7;7;
73973;PMS5003;62336;-26.094;27.994;2023-02-28T19:09:21;7;7;
73973;PMS5003;62336;-26.094;27.994;2023-02-28T19:11:47;9;9;
73973;PMS5003;62336;-26.094;27.994;2023-02-28T19:14:11;7;7;